Portada
METAR-TAF:

METAR-TAF

Aeroports :

Camagüey, Cuba

latitud: 21-25N, longitud: 077-51W, altitud: 122 m

Observació

L'informe es va fer fa 58 minuts, a les 06:50 UTC
Vent 5 kt del Est
Temperatura 26°C
Humitat 94%
Pressió 1015 hPa
Visibilitat: 9000 m
Núvols disperses a una alçada de 2000 ft
Cel ennuvolat a una alçada de 8000 ft

METAR: MUCM 200650Z 08005KT 9000 SCT020 BKN080 26/25 Q1015

Hora: 03:48 (07:48 UTC)

Pronòstic

L'informe es va fer fa 2 hores i 48 minuts, a les 05:00 UTC
Pronòstic vàlid del 20 a les 06 UTC al 21 a les 06 UTC
Vent 3 kt amb direcció variable
Visibilitat: 9000 m
Núvols disperses a una alçada de 2000 ft
Cel ennuvolat a una alçada de 7000 ft
Evolucionant progressivament
l' 20 a les 15 UTC al 20 a les 17 UTC
Vent 10 kt del Est
Núvols disperses a una alçada de 2000 ft

TAF: MUCM 200500Z 2006/2106 VRB03KT 9000 SCT020 BKN070 BECMG 2015/2017 09010KT SCT020

Observacions i pronòstics meteorològics de més de 4000 aeroports (METAR i TAF).

Les estacions disponibles són els punts grocs i vermells al mapa.

Posi el ratolí al punt desitjat per veure el nom de l'estació.

Feu clic per veure les observacions i els pronòstics meteorològics.

Per canviar el mapa: feu clic els botons verds amb una creu de color negre per apropar; al botó verd amb un guió per allunyar la imatge; o en les fletxes verdes per a mapes adjacents.


METAR-TAF: